createdAt,value
2018-11-25T04:48:22.730Z,7.20
2018-11-25T04:50:51.898Z,7.20
2018-11-25T04:53:21.057Z,7.30
2018-11-25T04:55:50.210Z,7.30
2018-11-25T04:58:19.360Z,7.40
2018-11-25T05:00:48.517Z,7.60
2018-11-25T05:03:17.631Z,7.60
2018-11-25T05:05:46.795Z,7.60
2018-11-25T05:08:15.924Z,7.60
2018-11-25T05:10:45.078Z,7.70
2018-11-25T05:13:14.239Z,7.50
2018-11-25T05:15:43.420Z,7.50
2018-11-25T05:18:12.582Z,7.30
2018-11-25T05:20:41.732Z,7.30
2018-11-25T05:23:10.937Z,7.40
2018-11-25T05:25:40.081Z,7.10
2018-11-25T05:28:09.221Z,6.90
2018-11-25T05:30:38.360Z,6.80
2018-11-25T05:33:07.530Z,6.80
2018-11-25T05:35:36.640Z,6.70
2018-11-25T05:38:05.826Z,6.60
2018-11-25T05:40:34.948Z,6.70
2018-11-25T05:43:04.183Z,6.90
2018-11-25T05:45:33.311Z,7.00
2018-11-25T05:48:02.465Z,7.20
2018-11-25T05:50:31.607Z,7.30
2018-11-25T05:53:00.746Z,7.30
2018-11-25T05:55:29.898Z,7.40
2018-11-25T05:57:59.064Z,7.40
2018-11-25T06:00:33.078Z,7.40
2018-11-25T06:03:02.374Z,7.50
2018-11-25T06:05:31.560Z,7.60
2018-11-25T06:08:00.685Z,7.60
2018-11-25T06:10:29.864Z,7.60
2018-11-25T06:12:59.065Z,7.60
2018-11-25T06:15:28.281Z,7.70
2018-11-25T06:17:57.461Z,7.60
2018-11-25T06:20:26.681Z,7.60
2018-11-25T06:22:55.794Z,7.20
2018-11-25T06:25:24.960Z,7.20
2018-11-25T06:27:54.087Z,7.30
2018-11-25T06:30:23.263Z,7.30
2018-11-25T06:32:52.414Z,7.30
2018-11-25T06:35:21.595Z,7.40
2018-11-25T06:37:50.737Z,7.20
2018-11-25T06:40:20.551Z,7.10
2018-11-25T06:42:49.852Z,7.20
2018-11-25T06:45:22.348Z,7.30
2018-11-25T06:47:51.548Z,7.40
2018-11-25T06:50:20.771Z,7.40
2018-11-25T06:52:50.098Z,7.40
2018-11-25T06:55:19.509Z,7.50
2018-11-25T06:57:48.856Z,7.50
2018-11-25T07:00:24.718Z,7.60
2018-11-25T07:02:56.474Z,7.60
2018-11-25T07:05:25.794Z,7.60
2018-11-25T07:07:55.889Z,7.50
2018-11-25T07:10:27.984Z,7.50
2018-11-25T07:12:57.897Z,7.50
2018-11-25T07:15:29.298Z,7.50
2018-11-25T07:18:01.741Z,7.60
2018-11-25T07:20:36.160Z,7.60
2018-11-25T07:23:07.907Z,7.70
2018-11-25T07:25:38.877Z,7.70
2018-11-25T07:28:18.117Z,7.70
2018-11-25T07:30:38.555Z,7.60
2018-11-25T07:33:10.749Z,7.10
2018-11-25T07:35:42.354Z,6.80
2018-11-25T07:38:12.405Z,6.60
2018-11-25T07:40:42.771Z,6.50
2018-11-25T07:43:13.606Z,6.70
2018-11-25T07:45:42.964Z,6.70
2018-11-25T07:48:13.356Z,6.50
2018-11-25T07:50:47.337Z,6.50
2018-11-25T07:53:21.127Z,6.30
2018-11-25T07:55:54.607Z,6.00
2018-11-25T07:58:23.900Z,6.10
2018-11-25T08:00:53.074Z,6.20
2018-11-25T08:03:23.352Z,6.40
2018-11-25T08:05:55.304Z,6.40
2018-11-25T08:08:27.193Z,6.60
2018-11-25T08:10:58.596Z,6.90
2018-11-25T08:13:27.955Z,6.90
2018-11-25T08:15:58.364Z,6.90
2018-11-25T08:18:28.452Z,6.50
2018-11-25T08:20:57.927Z,6.30
2018-11-25T08:23:29.748Z,6.40
2018-11-25T08:25:59.206Z,6.60
2018-11-25T08:28:28.340Z,6.80
2018-11-25T08:31:01.125Z,6.60
2018-11-25T08:33:30.503Z,6.70
2018-11-25T08:36:03.470Z,6.90
2018-11-25T08:38:32.685Z,7.00
2018-11-25T08:41:03.723Z,7.20
2018-11-25T08:43:33.127Z,7.30
2018-11-25T08:46:05.689Z,6.90
2018-11-25T08:48:38.604Z,7.10
2018-11-25T08:51:08.492Z,7.20
2018-11-25T08:53:39.020Z,7.20
2018-11-25T08:56:10.163Z,7.30
2018-11-25T08:58:42.253Z,7.40
2018-11-25T09:01:11.808Z,7.30
2018-11-25T09:03:41.727Z,7.30
2018-11-25T09:06:11.883Z,7.00
2018-11-25T09:08:42.352Z,7.10
2018-11-25T09:11:13.396Z,7.00
2018-11-25T09:13:45.123Z,7.10
2018-11-25T09:16:16.204Z,7.30
2018-11-25T09:18:47.367Z,7.20
2018-11-25T09:21:24.799Z,7.40
2018-11-25T09:23:54.109Z,7.50
2018-11-25T09:26:24.061Z,7.80
2018-11-25T09:28:53.959Z,8.00
2018-11-25T09:31:23.380Z,8.10
2018-11-25T09:33:53.104Z,8.20
2018-11-25T09:36:22.761Z,8.30
2018-11-25T09:38:52.389Z,8.40
2018-11-25T09:41:22.173Z,8.60
2018-11-25T09:43:51.336Z,8.60
2018-11-25T09:46:20.496Z,8.70
2018-11-25T09:48:50.269Z,8.70
2018-11-25T09:51:21.942Z,8.60
2018-11-25T09:53:52.847Z,8.70
2018-11-25T09:56:22.115Z,8.70
2018-11-25T09:58:51.385Z,8.80
2018-11-25T10:01:21.221Z,8.80
2018-11-25T10:03:51.296Z,8.80
2018-11-25T10:06:20.782Z,8.80
2018-11-25T10:08:50.137Z,8.90
2018-11-25T10:11:19.870Z,9.00
2018-11-25T10:13:51.209Z,9.10
2018-11-25T10:16:20.600Z,9.10
2018-11-25T10:18:49.916Z,9.00
2018-11-25T10:21:20.591Z,8.70
2018-11-25T10:23:51.863Z,9.00
2018-11-25T10:26:21.829Z,9.00
2018-11-25T10:28:51.963Z,9.10
2018-11-25T10:31:23.561Z,9.20
2018-11-25T10:33:53.352Z,9.20
2018-11-25T10:36:25.644Z,9.40
2018-11-25T10:38:56.480Z,9.40
2018-11-25T10:41:29.119Z,9.40
2018-11-25T10:43:58.458Z,9.40
2018-11-25T10:46:27.897Z,9.40
2018-11-25T10:49:04.789Z,9.50
2018-11-25T10:51:43.382Z,9.60
2018-11-25T10:54:12.660Z,9.40
2018-11-25T10:56:41.897Z,9.40
2018-11-25T10:59:11.215Z,9.50
2018-11-25T11:01:52.161Z,9.50
2018-11-25T11:04:28.996Z,9.60
2018-11-25T11:07:04.478Z,9.60
2018-11-25T11:09:33.696Z,9.80
2018-11-25T11:12:06.178Z,9.80
2018-11-25T11:14:35.410Z,9.80
2018-11-25T11:17:04.576Z,9.80
2018-11-25T11:19:33.938Z,9.90
2018-11-25T11:22:03.690Z,9.90
2018-11-25T11:24:32.832Z,9.90
2018-11-25T11:27:02.013Z,10.00
2018-11-25T11:29:31.137Z,9.90
2018-11-25T11:32:00.754Z,10.00
2018-11-25T11:34:30.568Z,10.10
2018-11-25T11:37:00.293Z,10.20
2018-11-25T11:39:30.141Z,10.20
2018-11-25T11:42:00.346Z,10.20
2018-11-25T11:44:29.577Z,10.30
2018-11-25T11:46:59.276Z,10.40
2018-11-25T11:49:28.515Z,10.40
2018-11-25T11:51:57.684Z,10.50
2018-11-25T11:54:26.859Z,10.50
2018-11-25T11:56:56.445Z,10.60
2018-11-25T11:59:26.036Z,10.60
2018-11-25T12:01:55.895Z,10.70
2018-11-25T12:04:25.188Z,10.80
2018-11-25T12:06:56.089Z,10.80
2018-11-25T12:09:25.989Z,10.70
2018-11-25T12:11:56.645Z,10.90
2018-11-25T12:14:25.886Z,10.80
2018-11-25T12:16:58.154Z,10.80
2018-11-25T12:19:30.574Z,10.90
2018-11-25T12:22:05.504Z,10.90
2018-11-25T12:24:36.686Z,10.90
2018-11-25T12:27:06.929Z,10.90
2018-11-25T12:29:40.287Z,10.90
2018-11-25T12:32:11.305Z,11.00
2018-11-25T12:34:41.401Z,11.10
2018-11-25T12:37:11.830Z,11.00
2018-11-25T12:39:41.540Z,11.10
2018-11-25T12:42:11.515Z,11.20
2018-11-25T12:44:42.633Z,11.30
2018-11-25T12:47:13.482Z,11.20
2018-11-25T12:49:43.297Z,11.20
2018-11-25T12:52:12.485Z,11.20
2018-11-25T12:54:42.032Z,11.20
2018-11-25T12:57:11.662Z,11.10
2018-11-25T12:59:41.342Z,11.10
2018-11-25T13:02:11.171Z,11.20
2018-11-25T13:04:40.355Z,11.20
2018-11-25T13:07:10.152Z,11.20
2018-11-25T13:09:39.397Z,11.10
2018-11-25T13:12:08.518Z,11.20
2018-11-25T13:14:38.074Z,11.10
2018-11-25T13:17:07.424Z,11.10
2018-11-25T13:19:37.013Z,11.20
2018-11-25T13:22:06.503Z,11.20
2018-11-25T13:24:35.652Z,11.20
2018-11-25T13:27:04.879Z,11.20
2018-11-25T13:29:34.656Z,11.10
2018-11-25T13:32:03.913Z,11.00
2018-11-25T13:34:33.154Z,11.00
2018-11-25T13:37:03.141Z,11.00
2018-11-25T13:39:33.133Z,10.90
2018-11-25T13:42:03.252Z,10.80
2018-11-25T13:44:36.743Z,10.90
2018-11-25T13:47:06.074Z,10.90
2018-11-25T13:49:35.274Z,11.00
2018-11-25T13:52:04.397Z,11.10
2018-11-25T13:54:33.652Z,11.00
2018-11-25T13:57:02.825Z,10.90
2018-11-25T13:59:32.002Z,11.00
2018-11-25T14:02:01.170Z,10.90
2018-11-25T14:04:30.338Z,10.80
2018-11-25T14:06:59.471Z,10.80
2018-11-25T14:09:29.681Z,10.80
2018-11-25T14:11:58.998Z,10.80
2018-11-25T14:14:28.408Z,10.90
2018-11-25T14:16:57.783Z,10.80
2018-11-25T14:19:27.857Z,10.80
2018-11-25T14:21:57.241Z,10.80
2018-11-25T14:24:26.688Z,10.70
2018-11-25T14:26:59.515Z,10.70
2018-11-25T14:29:28.998Z,10.60
2018-11-25T14:31:58.132Z,10.70
2018-11-25T14:34:27.284Z,10.70
2018-11-25T14:36:56.643Z,10.50
2018-11-25T14:39:26.197Z,10.50
2018-11-25T14:41:55.325Z,10.60
2018-11-25T14:44:24.471Z,10.60
2018-11-25T14:46:53.851Z,10.60
2018-11-25T14:49:24.894Z,10.50
2018-11-25T14:51:54.359Z,10.50
2018-11-25T14:54:23.547Z,10.40
2018-11-25T14:56:53.103Z,10.40
2018-11-25T14:59:22.877Z,10.30
2018-11-25T15:01:52.865Z,10.30
2018-11-25T15:04:23.093Z,10.30
2018-11-25T15:06:53.127Z,10.20
2018-11-25T15:09:23.095Z,10.30
2018-11-25T15:11:53.597Z,10.20
2018-11-25T15:14:22.815Z,10.20
2018-11-25T15:16:52.013Z,10.10
2018-11-25T15:19:21.296Z,10.10
2018-11-25T15:21:50.817Z,10.10
2018-11-25T15:24:20.085Z,10.10
2018-11-25T15:26:49.241Z,10.00
2018-11-25T15:29:18.444Z,10.00
2018-11-25T15:31:47.632Z,10.00
2018-11-25T15:34:17.002Z,10.00
2018-11-25T15:36:46.250Z,10.00
2018-11-25T15:39:15.382Z,10.00
2018-11-25T15:41:44.710Z,9.90
2018-11-25T15:44:13.942Z,9.90
2018-11-25T15:46:43.176Z,9.80
2018-11-25T15:49:12.392Z,9.90
2018-11-25T15:51:41.536Z,9.80
2018-11-25T15:54:10.760Z,9.80
2018-11-25T15:56:39.928Z,9.80
2018-11-25T15:59:09.319Z,9.70
2018-11-25T16:01:38.597Z,9.70
2018-11-25T16:04:07.752Z,9.80
2018-11-25T16:06:37.503Z,9.80
2018-11-25T16:09:08.557Z,9.70
2018-11-25T16:11:37.699Z,9.70
2018-11-25T16:14:06.911Z,9.70
2018-11-25T16:16:36.035Z,9.60
2018-11-25T16:19:05.309Z,9.70
2018-11-25T16:21:34.511Z,9.60
2018-11-25T16:24:03.647Z,9.60
2018-11-25T16:26:34.662Z,9.60
2018-11-25T16:29:12.150Z,9.60
2018-11-25T16:31:41.468Z,9.60
2018-11-25T16:34:10.610Z,9.60
2018-11-25T16:36:39.767Z,9.60
2018-11-25T16:39:09.980Z,9.60
2018-11-25T16:41:39.078Z,9.60
2018-11-25T16:44:08.226Z,9.50
2018-11-25T16:46:37.425Z,9.50
2018-11-25T16:49:06.670Z,9.40
2018-11-25T16:51:35.960Z,9.30
2018-11-25T16:54:05.237Z,9.40
2018-11-25T16:56:34.365Z,9.30
2018-11-25T16:59:03.485Z,9.30
2018-11-25T17:01:32.634Z,9.40
2018-11-25T17:04:01.781Z,9.40
2018-11-25T17:06:31.778Z,9.30
2018-11-25T17:09:01.082Z,9.30
2018-11-25T17:11:30.407Z,9.40
2018-11-25T17:13:59.764Z,9.40
2018-11-25T17:16:28.925Z,9.40
2018-11-25T17:18:58.113Z,9.30
2018-11-25T17:21:27.354Z,9.30
2018-11-25T17:23:56.508Z,9.30
2018-11-25T17:26:25.593Z,9.30
2018-11-25T17:28:54.791Z,9.40
2018-11-25T17:31:23.967Z,9.30
2018-11-25T17:33:53.093Z,9.30
2018-11-25T17:36:22.166Z,9.30
2018-11-25T17:38:51.292Z,9.40
2018-11-25T17:41:20.388Z,9.30
2018-11-25T17:43:49.548Z,9.40
2018-11-25T17:46:18.623Z,9.40
2018-11-25T17:48:47.736Z,9.30
2018-11-25T17:51:16.939Z,9.30
2018-11-25T17:53:46.060Z,9.40
2018-11-25T17:56:15.155Z,9.30
2018-11-25T17:58:44.381Z,9.30
2018-11-25T18:01:13.580Z,9.40
2018-11-25T18:03:42.801Z,9.40
2018-11-25T18:06:12.042Z,9.40
2018-11-25T18:08:41.347Z,9.40
2018-11-25T18:11:10.615Z,9.40
2018-11-25T18:13:41.066Z,9.40
2018-11-25T18:16:11.470Z,9.40
2018-11-25T18:18:44.615Z,9.40
2018-11-25T18:21:16.100Z,9.40
2018-11-25T18:23:45.254Z,9.30
2018-11-25T18:26:14.370Z,9.30
2018-11-25T18:28:43.649Z,9.30
2018-11-25T18:31:13.450Z,9.30
2018-11-25T18:33:42.617Z,9.30
2018-11-25T18:36:13.382Z,9.40
2018-11-25T18:38:42.527Z,9.30
2018-11-25T18:41:11.624Z,9.30
2018-11-25T18:43:40.781Z,9.30
2018-11-25T18:46:09.945Z,9.20
2018-11-25T18:48:42.123Z,9.20
2018-11-25T18:51:11.311Z,9.20
2018-11-25T18:53:40.462Z,9.20
2018-11-25T18:56:09.642Z,9.10
2018-11-25T18:58:38.789Z,9.20
2018-11-25T19:01:12.187Z,9.20
2018-11-25T19:03:41.333Z,9.20
2018-11-25T19:06:10.424Z,9.30
2018-11-25T19:08:41.235Z,9.20
2018-11-25T19:11:10.393Z,9.30
2018-11-25T19:13:39.595Z,9.20
2018-11-25T19:16:08.760Z,9.10
2018-11-25T19:18:37.928Z,9.20
2018-11-25T19:21:07.122Z,9.20
2018-11-25T19:23:36.243Z,9.20
2018-11-25T19:26:05.986Z,9.20
2018-11-25T19:28:35.160Z,9.10
2018-11-25T19:31:04.410Z,9.10
2018-11-25T19:33:33.731Z,9.10
2018-11-25T19:36:02.904Z,9.00
2018-11-25T19:38:32.056Z,8.90
2018-11-25T19:41:01.167Z,8.90
2018-11-25T19:43:30.305Z,9.00
2018-11-25T19:45:59.432Z,9.00
2018-11-25T19:48:28.751Z,9.00
2018-11-25T19:50:57.884Z,9.00
2018-11-25T19:53:27.085Z,9.00
2018-11-25T19:55:56.228Z,9.00
2018-11-25T19:58:25.400Z,8.90
2018-11-25T20:00:54.560Z,8.90
2018-11-25T20:03:26.588Z,8.90
2018-11-25T20:05:58.702Z,8.90
2018-11-25T20:08:30.507Z,8.80
2018-11-25T20:11:01.140Z,8.70
2018-11-25T20:13:30.522Z,8.60
2018-11-25T20:16:09.367Z,8.60
2018-11-25T20:18:40.452Z,8.60
2018-11-25T20:21:19.912Z,8.60
2018-11-25T20:23:49.315Z,8.50
2018-11-25T20:26:20.222Z,8.30
2018-11-25T20:28:50.046Z,8.30
2018-11-25T20:31:21.502Z,8.20
2018-11-25T20:33:52.709Z,8.10
2018-11-25T20:36:23.556Z,8.20
2018-11-25T20:38:58.190Z,8.10
2018-11-25T20:41:27.332Z,8.10
2018-11-25T20:43:56.530Z,8.10
2018-11-25T20:46:31.020Z,8.20
2018-11-25T20:49:00.153Z,8.30
2018-11-25T20:51:34.602Z,8.40
2018-11-25T20:54:03.977Z,8.40
2018-11-25T20:56:33.126Z,8.40
2018-11-25T20:59:02.538Z,8.40
2018-11-25T21:01:31.774Z,8.50
2018-11-25T21:04:01.055Z,8.40
2018-11-25T21:06:30.197Z,8.40
2018-11-25T21:08:59.350Z,8.40
2018-11-25T21:11:28.481Z,8.40
2018-11-25T21:13:58.478Z,8.20
2018-11-25T21:16:27.796Z,8.30
2018-11-25T21:18:57.071Z,8.20
2018-11-25T21:21:26.328Z,8.20
2018-11-25T21:23:59.034Z,8.20
2018-11-25T21:26:31.104Z,8.20
2018-11-25T21:29:04.319Z,8.30
2018-11-25T21:31:34.817Z,8.30
2018-11-25T21:34:06.017Z,8.30
2018-11-25T21:36:38.844Z,8.30
2018-11-25T21:39:12.804Z,8.30
2018-11-25T21:41:45.645Z,8.30
2018-11-25T21:44:16.340Z,8.30
2018-11-25T21:46:48.104Z,8.30
2018-11-25T21:49:18.895Z,8.40
2018-11-25T21:51:51.908Z,8.40
2018-11-25T21:54:21.686Z,8.40
2018-11-25T22:00:01.660Z,8.50
2018-11-25T22:02:31.393Z,8.50
2018-11-25T22:05:02.225Z,8.50
2018-11-25T22:07:31.990Z,8.50
2018-11-25T22:10:01.295Z,8.40
2018-11-25T22:12:30.785Z,8.40
2018-11-25T22:15:05.869Z,8.50
2018-11-25T22:17:37.385Z,8.50
2018-11-25T22:20:08.597Z,8.60
2018-11-25T22:22:37.882Z,8.50
2018-11-25T22:25:09.312Z,8.50
2018-11-25T22:27:38.796Z,8.60
2018-11-25T22:30:12.974Z,8.60
2018-11-25T22:32:42.369Z,8.50
2018-11-25T22:35:13.663Z,8.50
2018-11-25T22:37:42.794Z,8.60
2018-11-25T22:40:12.879Z,8.60
2018-11-25T22:42:42.896Z,8.60
2018-11-25T22:45:14.107Z,8.60
2018-11-25T22:47:43.202Z,8.60
2018-11-25T22:50:14.480Z,8.50
2018-11-25T22:52:43.797Z,8.50
2018-11-25T22:55:15.202Z,8.50
2018-11-25T22:57:44.367Z,8.50
2018-11-25T23:00:20.022Z,8.50
2018-11-25T23:02:49.180Z,8.60
2018-11-25T23:05:29.503Z,8.60
2018-11-25T23:07:58.616Z,8.60
2018-11-25T23:10:27.751Z,8.60
2018-11-25T23:12:56.908Z,8.50
2018-11-25T23:15:26.066Z,8.50
2018-11-25T23:17:55.156Z,8.50
2018-11-25T23:20:24.320Z,8.50
2018-11-25T23:22:53.420Z,8.50
2018-11-25T23:25:22.538Z,8.50
2018-11-25T23:27:51.876Z,8.50
2018-11-25T23:30:21.057Z,8.40
2018-11-25T23:32:50.174Z,8.40
2018-11-25T23:35:20.747Z,8.40
2018-11-25T23:37:49.875Z,8.40
2018-11-25T23:40:19.037Z,8.30
2018-11-25T23:42:48.213Z,8.40
2018-11-25T23:45:17.534Z,8.40
2018-11-25T23:47:47.085Z,8.20
2018-11-25T23:50:16.202Z,8.30
2018-11-25T23:52:46.723Z,8.40
2018-11-25T23:55:15.952Z,8.40
2018-11-25T23:57:45.117Z,8.40
